メインページ
METAR-TAF:

METAR-TAF

空港 :

ピーターボロ, オンタリオ州, カナダ

緯度: 44-14N, 経度: 078-22W, 海抜: 191m

現時点の気象観測

当レポートは16分前の02:29(UTC)に作成
無風
気温 -7°C
湿度 93%
気圧 1021 hPa
視程: 4.8km
高度1400ftの千切れ雲あり
高度2200ftの曇り
小雪

METAR: CYPQ 070229Z AUTO 00000KT 3SM -SN BKN014 OVC022 M07/M08 A3016 RMK SLP226

時間: 21:45 (02:45 UTC)

予報

当レポートは31分前の02:14(UTC)に作成
予報は07日の 02時(UTC)から 07日の 03時(UTC)まで有効
西/北西の風 6kt
視程: 10km
高度3000ftの千切れ雲あり
小雪
07日の 02時(UTC)から 07日の 03時(UTC)まで一時的に
視程: 1.6km
高度2000ftの千切れ雲あり
小雪

TAF: CYPQ 070214Z 0702/0703 30006KT P6SM -SN BKN030 TEMPO 0702/0703 1SM -SN BKN020 RMK FCST BASED ON AUTO OBS. NXT FCST WILL BE ISSUED AT 071045Z

4,000以上の空港の気象観測と天気予報(METAR報とTAF報)

利用可能な観測所は地図上に黄色い丸と赤い丸で示す。

丸の上にカーソルを重ねると観測所名を参照できる。

次にクリックすると気象観測と天気予報を参照できる。

マップの切り替え:黒色「×」印の緑ボタンをクリックして拡大、「-」印の緑ボタンをクリックして縮小、緑色の三角印をクリックして隣りの地図に切り替え


METAR-TAF: